Terminal Aerodrome Forecast
Issued by NWS

Home | Current Version | Previous Version | Text Only | Print | Product List | Glossary On
Versions: 1 2 3 4 5 6 7 8 9 10 11 12 13 14 15 16 17
000
FTAK31 PANC 231737
TAFAHO
TAF
PAHO 231737Z 2318/2418 22008KT P6SM BKN050
     FM240000 18003KT P6SM VCSH BKN050
     FM240300 18004KT P6SM -RA SCT020 OVC050
     FM241200 10005KT 5SM -RA BR BKN020 OVC030
     FM241500 10005KT P6SM -RA SCT020 OVC030=

USA.gov is the U.S. government's official web portal to all federal, state and local government web resources and services.